Time;durP1;ratioP1;P1;durP2;ratioP2;P2;SDS_P1;SDS_P2;PMS_P1;PMS_P2;Temp;Humidity;BMP_temperature;BMP_pressure;BME280_temperature;BME280_humidity;BME280_pressure;Samples;Min_cycle;Max_cycle;Signal;HPM_P1;HPM_P2
2023/11/27 00:01:52;;;;;;;1.10;1.07;;;4.30;90.50;;;;;;4947958;28;20180;-66
2023/11/27 00:04:17;;;;;;;0.83;0.63;;;4.40;90.30;;;;;;4965938;28;20205;-66
2023/11/27 00:06:43;;;;;;;3.10;1.97;;;4.40;90.20;;;;;;4964151;28;20184;-66
2023/11/27 00:09:09;;;;;;;0.97;0.63;;;4.40;90.30;;;;;;4965589;28;20572;-67
2023/11/27 00:11:37;;;;;;;2.05;0.98;;;4.60;89.30;;;;;;4965534;28;20201;-66
2023/11/27 00:14:06;;;;;;;0.50;0.50;;;4.60;88.80;;;;;;4954869;28;20234;-67
2023/11/27 00:16:31;;;;;;;3.75;2.15;;;4.60;88.80;;;;;;4974987;28;20176;-66
2023/11/27 00:18:57;;;;;;;0.70;0.70;;;4.60;88.10;;;;;;4974767;28;20210;-66
2023/11/27 00:21:23;;;;;;;1.13;1.13;;;4.60;88.30;;;;;;4978737;28;20476;-67
2023/11/27 00:23:48;;;;;;;0.30;0.30;;;4.70;88.30;;;;;;4994105;28;20206;-66
2023/11/27 00:26:14;;;;;;;0.40;0.40;;;4.60;89.10;;;;;;4994431;28;20602;-66
2023/11/27 00:28:42;;;;;;;1.17;0.70;;;4.50;90.00;;;;;;4994682;28;20290;-66
2023/11/27 00:31:09;;;;;;;0.35;0.35;;;4.60;90.30;;;;;;4994298;28;20169;-67
2023/11/27 00:33:36;;;;;;;0.50;0.50;;;4.60;90.30;;;;;;4994016;28;20176;-66
2023/11/27 00:36:02;;;;;;;3.90;0.95;;;4.60;90.40;;;;;;4994681;28;20177;-67
2023/11/27 00:38:27;;;;;;;0.80;0.80;;;4.60;90.30;;;;;;4994172;28;20204;-67
2023/11/27 00:40:53;;;;;;;0.50;0.50;;;4.60;90.30;;;;;;4994101;28;20173;-66
2023/11/27 00:43:18;;;;;;;5.23;2.63;;;4.70;89.90;;;;;;4993766;28;20176;-66
2023/11/27 00:45:44;;;;;;;0.50;0.50;;;4.60;90.10;;;;;;4994158;28;20555;-66
2023/11/27 00:48:10;;;;;;;0.47;0.47;;;4.60;90.30;;;;;;4994000;28;20204;-66
2023/11/27 00:50:35;;;;;;;1.67;0.53;;;4.60;90.40;;;;;;4993755;28;20650;-67
2023/11/27 00:53:01;;;;;;;0.73;0.73;;;4.70;90.50;;;;;;4993676;28;20179;-66
2023/11/27 00:55:26;;;;;;;0.87;0.63;;;4.70;90.40;;;;;;4993894;28;20254;-66
2023/11/27 00:57:52;;;;;;;0.90;0.60;;;4.70;90.40;;;;;;4993848;28;20199;-66
2023/11/27 01:00:18;;;;;;;0.53;0.53;;;4.70;90.10;;;;;;4993810;28;20179;-67
2023/11/27 01:02:45;;;;;;;0.93;0.70;;;4.70;89.70;;;;;;4993448;28;20179;-67
2023/11/27 01:05:14;;;;;;;0.40;0.40;;;4.50;90.10;;;;;;4993631;28;21179;-66
2023/11/27 01:07:40;;;;;;;0.30;0.30;;;4.60;90.40;;;;;;4993619;28;20357;-66
2023/11/27 01:10:07;;;;;;;0.40;0.40;;;4.70;90.00;;;;;;4993585;28;20187;-66
2023/11/27 01:12:34;;;;;;;0.30;0.30;;;4.70;90.20;;;;;;4993386;28;20540;-67
2023/11/27 01:15:01;;;;;;;0.30;0.30;;;4.50;90.30;;;;;;4993490;28;20183;-67
2023/11/27 01:17:27;;;;;;;1.23;0.40;;;4.50;90.40;;;;;;4993276;28;20186;-66
2023/11/27 01:19:53;;;;;;;0.50;0.50;;;4.60;90.20;;;;;;4993503;28;20183;-66
2023/11/27 01:22:19;;;;;;;0.40;0.40;;;4.70;88.60;;;;;;4993429;28;20179;-66
2023/11/27 01:24:44;;;;;;;0.40;0.40;;;4.70;89.00;;;;;;4993291;28;20208;-67
2023/11/27 01:27:10;;;;;;;0.40;0.40;;;4.50;89.40;;;;;;4993329;28;20172;-67
2023/11/27 01:29:36;;;;;;;0.97;0.97;;;4.40;89.90;;;;;;4993263;28;20172;-66
2023/11/27 01:32:01;;;;;;;0.60;0.53;;;4.30;90.20;;;;;;4992430;28;20175;-66
2023/11/27 01:34:27;;;;;;;0.57;0.57;;;4.40;90.50;;;;;;4993010;28;20176;-66
2023/11/27 01:36:52;;;;;;;0.70;0.50;;;4.50;90.30;;;;;;4993135;28;20179;-66
2023/11/27 01:39:18;;;;;;;0.50;0.50;;;4.60;89.90;;;;;;4992994;28;20546;-67
2023/11/27 01:41:44;;;;;;;0.30;0.30;;;4.70;90.10;;;;;;4993055;28;20176;-67
2023/11/27 01:44:09;;;;;;;0.40;0.40;;;4.60;90.00;;;;;;4992698;28;20458;-66
2023/11/27 01:46:43;;;;;;;0.60;0.60;;;4.60;90.00;;;;;;4992946;28;20171;-66
2023/11/27 01:49:10;;;;;;;0.50;0.40;;;4.50;90.00;;;;;;4992741;28;20266;-66
2023/11/27 01:51:36;;;;;;;0.40;0.40;;;4.60;89.80;;;;;;4992819;28;20194;-66
2023/11/27 01:54:01;;;;;;;0.38;0.38;;;4.70;88.30;;;;;;4975130;28;20707;-66
2023/11/27 01:56:29;;;;;;;1.07;0.83;;;4.60;88.30;;;;;;4992738;28;20187;-66
2023/11/27 01:58:59;;;;;;;0.40;0.40;;;4.60;88.70;;;;;;4992749;28;20722;-66
2023/11/27 02:01:25;;;;;;;0.40;0.40;;;4.50;88.80;;;;;;4993098;28;20176;-68
2023/11/27 02:03:52;;;;;;;0.50;0.50;;;4.40;88.90;;;;;;4992260;28;20202;-67
2023/11/27 02:06:18;;;;;;;0.32;0.32;;;4.30;89.70;;;;;;4975177;28;20176;-66
2023/11/27 02:08:43;;;;;;;0.67;0.50;;;4.10;90.00;;;;;;4992415;28;20612;-66
2023/11/27 02:11:09;;;;;;;0.30;0.30;;;4.20;89.20;;;;;;4992556;28;20551;-66
2023/11/27 02:13:35;;;;;;;0.40;0.40;;;4.20;88.80;;;;;;4992124;28;20181;-67
2023/11/27 02:16:01;;;;;;;0.40;0.40;;;4.30;88.90;;;;;;4992393;28;20179;-67
2023/11/27 02:18:26;;;;;;;0.43;0.43;;;4.20;89.50;;;;;;4992366;28;20191;-66
2023/11/27 02:20:52;;;;;;;0.40;0.40;;;4.10;89.90;;;;;;4992410;28;20745;-66
2023/11/27 02:23:18;;;;;;;0.30;0.30;;;3.90;90.10;;;;;;4992169;28;20175;-66
2023/11/27 02:25:44;;;;;;;0.67;0.67;;;3.90;90.30;;;;;;4992371;28;20177;-67
2023/11/27 02:28:10;;;;;;;0.30;0.30;;;3.90;90.30;;;;;;4992146;28;20755;-66
2023/11/27 02:30:36;;;;;;;0.30;0.30;;;3.90;90.10;;;;;;4992213;28;20180;-66
2023/11/27 02:33:02;;;;;;;0.30;0.30;;;3.80;90.20;;;;;;4991897;28;20182;-66
2023/11/27 02:35:28;;;;;;;0.30;0.30;;;3.90;90.20;;;;;;4992196;28;20180;-66
2023/11/27 02:37:53;;;;;;;0.30;0.30;;;3.90;90.20;;;;;;4992028;28;20249;-67
2023/11/27 02:40:19;;;;;;;1.60;0.67;;;3.80;90.30;;;;;;4974849;28;20182;-67
2023/11/27 02:42:45;;;;;;;0.40;0.40;;;3.80;90.40;;;;;;4991744;28;20406;-67
2023/11/27 02:45:11;;;;;;;0.67;0.67;;;3.80;90.30;;;;;;4992003;28;20214;-66
2023/11/27 02:47:37;;;;;;;0.47;0.47;;;3.80;90.00;;;;;;4974582;28;20527;-67
2023/11/27 02:50:05;;;;;;;0.30;0.30;;;3.80;89.50;;;;;;4992112;28;20163;-66
2023/11/27 02:52:31;;;;;;;0.30;0.30;;;3.70;89.50;;;;;;4992264;28;20262;-66
2023/11/27 02:54:58;;;;;;;0.85;0.75;;;3.70;89.80;;;;;;4991995;28;20196;-66
2023/11/27 02:57:24;;;;;;;0.40;0.40;;;3.60;90.10;;;;;;4991763;28;20253;-66
2023/11/27 02:59:49;;;;;;;0.30;0.30;;;3.80;89.60;;;;;;4991953;28;20257;-66
2023/11/27 03:02:15;;;;;;;0.30;0.30;;;3.80;89.60;;;;;;4991860;28;20232;-67
2023/11/27 03:04:42;;;;;;;2.33;1.10;;;3.80;90.00;;;;;;4970636;28;20245;-66
2023/11/27 03:07:08;;;;;;;0.50;0.50;;;3.80;90.20;;;;;;4981160;28;20419;-68
2023/11/27 03:09:34;;;;;;;0.65;0.65;;;3.80;90.30;;;;;;4991872;28;20211;-67
2023/11/27 03:12:03;;;;;;;1.00;0.50;;;3.80;90.40;;;;;;4991750;28;20221;-67
2023/11/27 03:14:29;;;;;;;0.38;0.38;;;3.90;89.60;;;;;;4974133;28;20175;-66
2023/11/27 03:16:56;;;;;;;0.38;0.38;;;3.90;90.00;;;;;;4972940;28;20179;-66
2023/11/27 03:19:21;;;;;;;0.30;0.30;;;3.90;90.10;;;;;;4992094;28;20198;-68
2023/11/27 03:21:48;;;;;;;0.30;0.30;;;3.90;90.10;;;;;;4991740;28;20271;-67
2023/11/27 03:24:14;;;;;;;0.35;0.35;;;4.10;90.40;;;;;;4991266;28;20210;-66
2023/11/27 03:26:40;;;;;;;0.38;0.38;;;4.10;90.30;;;;;;4991707;28;20593;-67
2023/11/27 03:29:06;;;;;;;0.30;0.30;;;4.10;90.30;;;;;;4991589;28;20250;-66
2023/11/27 03:31:32;;;;;;;0.30;0.30;;;4.10;90.30;;;;;;4974227;28;20415;-68
2023/11/27 03:33:58;;;;;;;0.40;0.40;;;4.10;90.30;;;;;;4991154;28;20821;-66
2023/11/27 03:36:23;;;;;;;0.40;0.40;;;4.30;89.30;;;;;;4991630;28;20196;-66
2023/11/27 03:38:50;;;;;;;0.30;0.30;;;4.20;89.60;;;;;;4991529;28;20709;-66
2023/11/27 03:41:17;;;;;;;0.50;0.50;;;4.10;89.90;;;;;;4991582;28;20180;-67
2023/11/27 03:43:43;;;;;;;0.40;0.40;;;4.10;90.00;;;;;;4991358;28;20585;-67
2023/11/27 03:46:09;;;;;;;0.50;0.50;;;4.10;90.10;;;;;;4991458;28;20168;-67
2023/11/27 03:48:34;;;;;;;0.30;0.30;;;4.10;90.00;;;;;;4991388;28;20243;-67
2023/11/27 03:51:00;;;;;;;0.40;0.40;;;4.10;89.10;;;;;;4991521;28;20172;-67
2023/11/27 03:53:27;;;;;;;0.50;0.50;;;4.00;89.30;;;;;;4973902;28;20178;-66
2023/11/27 03:55:53;;;;;;;0.30;0.30;;;4.10;88.30;;;;;;4994882;28;20170;-66
2023/11/27 03:58:21;;;;;;;0.30;0.30;;;4.00;88.30;;;;;;4994909;28;20622;-67
2023/11/27 04:00:46;;;;;;;0.40;0.40;;;3.90;88.00;;;;;;4994905;28;20597;-66
2023/11/27 04:03:12;;;;;;;0.30;0.30;;;3.80;88.60;;;;;;4994559;28;20204;-67
2023/11/27 04:05:39;;;;;;;0.30;0.30;;;3.60;89.10;;;;;;4994769;28;20174;-66
2023/11/27 04:08:05;;;;;;;0.40;0.40;;;3.60;89.00;;;;;;4994690;28;20197;-67
2023/11/27 04:10:32;;;;;;;0.30;0.30;;;3.50;88.90;;;;;;4994673;28;20178;-67
2023/11/27 04:12:58;;;;;;;0.40;0.40;;;3.50;89.00;;;;;;4994421;28;20182;-68
2023/11/27 04:15:23;;;;;;;0.40;0.40;;;3.50;88.40;;;;;;4994665;28;20655;-66
2023/11/27 04:17:49;;;;;;;0.30;0.30;;;3.40;88.80;;;;;;4994555;28;20233;-67
2023/11/27 04:20:16;;;;;;;0.30;0.30;;;3.40;89.10;;;;;;4994454;28;20184;-68
2023/11/27 04:22:43;;;;;;;0.30;0.30;;;3.30;88.90;;;;;;4994218;28;20165;-67
2023/11/27 04:25:09;;;;;;;0.30;0.30;;;3.20;89.20;;;;;;4994383;28;20266;-68
2023/11/27 04:27:35;;;;;;;0.70;0.70;;;3.00;89.90;;;;;;4994377;28;20198;-68
2023/11/27 04:30:01;;;;;;;1.15;1.15;;;2.70;90.40;;;;;;4994362;28;20170;-68
2023/11/27 04:32:27;;;;;;;0.30;0.30;;;2.60;91.00;;;;;;4994155;28;20178;-67
2023/11/27 04:34:53;;;;;;;0.40;0.40;;;2.70;91.20;;;;;;4993945;28;20197;-69
2023/11/27 04:37:19;;;;;;;0.40;0.40;;;2.80;91.10;;;;;;4976512;28;20190;-68
2023/11/27 04:39:44;;;;;;;0.30;0.30;;;2.90;90.90;;;;;;4994269;28;20176;-67
2023/11/27 04:42:13;;;;;;;0.40;0.40;;;2.90;90.90;;;;;;4994028;28;20259;-67
2023/11/27 04:44:39;;;;;;;1.73;1.63;;;2.90;90.90;;;;;;4993844;28;20203;-68
2023/11/27 04:47:06;;;;;;;0.45;0.45;;;2.90;90.90;;;;;;4994037;28;20238;-67
2023/11/27 04:49:31;;;;;;;0.40;0.40;;;2.90;91.20;;;;;;4987296;22;20662;-64
2023/11/27 04:51:57;;;;;;;0.40;0.40;;;3.00;90.20;;;;;;4954755;28;20267;-64
2023/11/27 04:54:23;;;;;;;0.30;0.30;;;3.20;90.00;;;;;;4954994;29;20268;-63
2023/11/27 04:56:49;;;;;;;0.40;0.40;;;3.20;90.00;;;;;;4955275;29;20180;-64
2023/11/27 04:59:15;;;;;;;0.40;0.40;;;3.10;90.30;;;;;;4955186;29;20197;-64
2023/11/27 05:01:41;;;;;;;0.30;0.30;;;3.20;90.20;;;;;;4955200;28;20231;-64
2023/11/27 05:04:06;;;;;;;0.40;0.40;;;3.30;90.30;;;;;;4954843;29;20230;-64
2023/11/27 05:06:33;;;;;;;0.40;0.40;;;3.20;90.40;;;;;;4954019;28;20615;-64
2023/11/27 05:08:59;;;;;;;0.38;0.38;;;3.30;90.40;;;;;;4954955;28;20182;-64
2023/11/27 05:11:25;;;;;;;0.30;0.30;;;3.30;90.40;;;;;;4955047;29;20177;-64
2023/11/27 05:13:51;;;;;;;0.30;0.30;;;3.20;90.50;;;;;;4954924;28;20191;-64
2023/11/27 05:16:17;;;;;;;0.40;0.40;;;3.20;90.70;;;;;;4955084;28;20555;-64
2023/11/27 05:18:45;;;;;;;0.40;0.40;;;3.20;90.80;;;;;;4954905;28;20451;-64
2023/11/27 05:21:12;;;;;;;0.40;0.40;;;3.40;90.20;;;;;;4954900;29;20187;-64
2023/11/27 05:23:39;;;;;;;0.32;0.32;;;3.50;89.50;;;;;;4954397;29;20205;-64
2023/11/27 05:26:06;;;;;;;0.40;0.40;;;3.50;89.10;;;;;;4954942;28;20188;-64
2023/11/27 05:28:31;;;;;;;0.40;0.40;;;3.40;90.10;;;;;;4954850;28;20196;-64
2023/11/27 05:30:59;;;;;;;0.70;0.70;;;3.50;90.20;;;;;;4954597;29;20218;-64
2023/11/27 05:33:26;;;;;;;0.30;0.30;;;3.40;90.20;;;;;;4954209;29;20555;-64
2023/11/27 05:35:52;;;;;;;0.50;0.50;;;3.30;90.60;;;;;;4954558;29;20177;-64
2023/11/27 05:38:19;;;;;;;1.00;1.00;;;3.40;90.60;;;;;;4954259;29;20207;-64
2023/11/27 05:40:45;;;;;;;0.63;0.63;;;3.40;90.70;;;;;;4954669;29;20192;-64
2023/11/27 05:43:11;;;;;;;0.65;0.65;;;3.40;90.80;;;;;;4954310;28;20189;-64
2023/11/27 05:45:38;;;;;;;1.10;1.10;;;3.40;90.90;;;;;;4954249;29;20216;-64
2023/11/27 05:48:07;;;;;;;5.90;1.58;;;3.60;90.60;;;;;;4954162;29;20618;-64
2023/11/27 05:50:33;;;;;;;1.40;0.85;;;3.70;90.10;;;;;;4954309;28;20274;-64
2023/11/27 05:53:00;;;;;;;0.47;0.47;;;3.80;90.10;;;;;;4953875;28;20270;-64
2023/11/27 05:55:26;;;;;;;0.40;0.40;;;3.80;90.00;;;;;;4954436;29;20640;-64
2023/11/27 05:57:54;;;;;;;0.53;0.53;;;3.80;90.30;;;;;;4953129;29;20277;-64
2023/11/27 06:00:20;;;;;;;0.90;0.90;;;3.80;90.60;;;;;;4953021;29;20864;-64
2023/11/27 06:02:45;;;;;;;6.07;2.50;;;3.80;90.70;;;;;;4953744;29;20264;-64
2023/11/27 06:05:11;;;;;;;0.83;0.83;;;3.80;90.60;;;;;;4954004;28;20626;-64
2023/11/27 06:07:38;;;;;;;1.40;1.33;;;3.80;90.60;;;;;;4954002;29;20252;-64
2023/11/27 06:10:04;;;;;;;1.60;1.50;;;4.00;90.80;;;;;;4953918;29;20196;-64
2023/11/27 06:12:31;;;;;;;2.42;2.22;;;4.20;90.40;;;;;;4953867;28;20552;-64
2023/11/27 06:14:56;;;;;;;1.20;1.17;;;4.20;90.20;;;;;;4953696;28;20180;-64
2023/11/27 06:17:22;;;;;;;1.63;1.33;;;4.30;89.00;;;;;;4953852;28;20208;-64
2023/11/27 06:19:48;;;;;;;0.57;0.57;;;4.30;89.50;;;;;;4953726;29;20238;-64
2023/11/27 06:22:14;;;;;;;0.50;0.50;;;4.40;90.00;;;;;;4953685;29;20256;-64
2023/11/27 06:24:40;;;;;;;0.60;0.60;;;4.50;88.80;;;;;;4952322;29;20464;-64
2023/11/27 06:27:06;;;;;;;0.40;0.40;;;4.50;89.10;;;;;;4953628;28;20272;-64
2023/11/27 06:29:32;;;;;;;1.05;1.05;;;4.60;89.10;;;;;;4953587;28;20433;-64
2023/11/27 06:31:58;;;;;;;1.30;1.20;;;4.60;90.10;;;;;;4953726;28;20173;-63
2023/11/27 06:34:24;;;;;;;1.53;1.37;;;4.50;90.40;;;;;;4953284;29;20178;-64
2023/11/27 06:36:49;;;;;;;1.37;1.27;;;4.40;90.30;;;;;;4953703;29;20173;-64
2023/11/27 06:39:16;;;;;;;6.03;1.63;;;4.10;90.70;;;;;;4953500;29;20202;-64
2023/11/27 06:41:42;;;;;;;1.00;0.95;;;3.60;91.00;;;;;;4953567;28;20256;-63
2023/11/27 06:44:09;;;;;;;0.67;0.67;;;2.90;91.00;;;;;;4953267;29;20644;-64
2023/11/27 06:46:36;;;;;;;0.50;0.50;;;2.50;91.80;;;;;;4951773;28;20181;-63
2023/11/27 06:49:04;;;;;;;0.40;0.40;;;2.10;92.90;;;;;;4952964;29;20216;-64
2023/11/27 06:51:31;;;;;;;2.38;0.50;;;1.90;93.40;;;;;;4952508;29;20190;-63
2023/11/27 06:53:56;;;;;;;2.50;2.40;;;1.70;93.80;;;;;;4952659;29;20184;-64
2023/11/27 06:56:22;;;;;;;4.23;0.70;;;1.70;94.30;;;;;;4953186;29;20475;-64
2023/11/27 06:58:48;;;;;;;0.80;0.80;;;1.70;94.40;;;;;;4953163;29;20204;-64
2023/11/27 07:01:13;;;;;;;0.77;0.77;;;1.70;94.40;;;;;;4953404;29;20218;-64
2023/11/27 07:03:39;;;;;;;1.90;1.27;;;1.70;94.30;;;;;;4952755;29;20216;-64
2023/11/27 07:06:06;;;;;;;0.90;0.90;;;1.60;94.40;;;;;;4952817;28;20171;-63
2023/11/27 07:08:34;;;;;;;0.50;0.50;;;1.60;94.70;;;;;;4953267;28;20195;-63
2023/11/27 07:11:02;;;;;;;0.40;0.40;;;1.60;94.60;;;;;;4953366;28;20242;-63
2023/11/27 07:13:28;;;;;;;0.80;0.80;;;1.60;94.80;;;;;;4953070;28;20184;-63
2023/11/27 07:15:53;;;;;;;0.70;0.70;;;1.50;95.10;;;;;;4953078;29;20297;-64
2023/11/27 07:18:19;;;;;;;2.80;2.70;;;1.50;95.40;;;;;;4953043;29;20256;-63
2023/11/27 07:20:45;;;;;;;1.00;1.00;;;1.50;95.70;;;;;;4953146;29;20643;-64
2023/11/27 07:23:12;;;;;;;2.53;2.00;;;1.50;95.60;;;;;;4956191;28;20183;-62
2023/11/27 07:25:37;;;;;;;3.30;2.70;;;1.60;95.70;;;;;;4956518;28;20205;-64
2023/11/27 07:28:04;;;;;;;1.13;0.97;;;1.60;95.80;;;;;;4957661;28;20185;-63
2023/11/27 07:30:31;;;;;;;1.55;1.45;;;1.70;95.90;;;;;;4960644;28;20176;-64
2023/11/27 07:32:58;;;;;;;0.93;0.93;;;1.80;95.80;;;;;;4961038;29;20192;-63
2023/11/27 07:35:24;;;;;;;0.40;0.40;;;1.80;95.80;;;;;;4961489;28;20211;-64
2023/11/27 07:37:50;;;;;;;1.20;0.95;;;1.90;95.70;;;;;;4961541;28;20505;-64
2023/11/27 07:40:16;;;;;;;1.17;1.13;;;1.90;95.90;;;;;;4960758;28;20204;-63
2023/11/27 07:42:42;;;;;;;3.63;3.40;;;1.90;96.00;;;;;;4960747;29;20205;-62
2023/11/27 07:45:08;;;;;;;3.40;2.88;;;2.00;96.10;;;;;;4960981;28;20698;-63
2023/11/27 07:47:34;;;;;;;4.50;3.73;;;2.00;96.20;;;;;;4961514;28;20196;-63
2023/11/27 07:50:00;;;;;;;1.30;0.85;;;2.10;96.30;;;;;;4961183;28;20466;-64
2023/11/27 07:52:27;;;;;;;3.53;2.20;;;2.10;95.70;;;;;;4960740;29;20268;-63
2023/11/27 07:54:53;;;;;;;2.17;1.90;;;2.30;95.70;;;;;;4960491;28;20421;-64
2023/11/27 07:57:18;;;;;;;1.17;1.17;;;2.20;95.70;;;;;;4960492;29;20701;-64
2023/11/27 07:59:44;;;;;;;0.80;0.80;;;2.30;95.80;;;;;;4961572;29;20561;-62
2023/11/27 08:02:11;;;;;;;2.97;2.70;;;2.20;95.60;;;;;;4961605;29;20229;-64
2023/11/27 08:04:36;;;;;;;1.58;1.15;;;2.30;95.60;;;;;;4961279;28;20238;-64
2023/11/27 08:07:02;;;;;;;1.70;1.60;;;2.40;95.50;;;;;;4960653;28;20182;-64
2023/11/27 08:09:27;;;;;;;1.80;1.07;;;2.60;95.80;;;;;;4959988;29;20260;-63
2023/11/27 08:11:53;;;;;;;2.00;1.87;;;2.50;95.80;;;;;;4961453;29;20576;-64
2023/11/27 08:14:19;;;;;;;1.67;1.47;;;2.60;95.90;;;;;;4959809;29;20170;-65
2023/11/27 08:16:46;;;;;;;4.20;1.90;;;2.70;95.00;;;;;;4960036;29;20276;-64
2023/11/27 08:19:16;;;;;;;1.40;1.15;;;2.80;94.80;;;;;;4961569;28;20229;-63
2023/11/27 08:21:46;;;;;;;1.08;1.08;;;2.90;94.70;;;;;;4961418;28;20193;-63
2023/11/27 08:24:15;;;;;;;1.48;1.42;;;3.00;94.20;;;;;;4960878;28;20221;-63
2023/11/27 08:26:49;;;;;;;1.13;1.02;;;3.20;94.70;;;;;;4961259;29;20203;-63
2023/11/27 08:29:15;;;;;;;2.60;2.40;;;3.30;95.00;;;;;;4962030;28;20990;-63
2023/11/27 08:31:42;;;;;;;0.77;0.77;;;3.30;95.20;;;;;;4961167;28;20220;-63
2023/11/27 08:34:07;;;;;;;1.67;1.67;;;3.40;94.10;;;;;;4959796;28;20675;-63
2023/11/27 08:36:33;;;;;;;1.63;1.53;;;3.50;94.10;;;;;;4960741;29;20185;-63
2023/11/27 08:38:59;;;;;;;0.70;0.70;;;3.60;94.30;;;;;;4961477;28;20252;-63
2023/11/27 08:41:25;;;;;;;1.80;1.80;;;3.70;94.50;;;;;;4959493;28;20641;-63
2023/11/27 08:43:50;;;;;;;1.23;1.23;;;3.80;94.20;;;;;;4959691;29;20217;-63
2023/11/27 08:46:16;;;;;;;1.43;1.43;;;3.80;93.90;;;;;;4961797;29;20169;-63
2023/11/27 08:48:42;;;;;;;1.52;1.42;;;3.80;94.00;;;;;;4960766;28;20231;-63
2023/11/27 08:51:09;;;;;;;1.17;1.17;;;3.90;94.00;;;;;;4961381;29;20173;-63
2023/11/27 08:53:34;;;;;;;0.88;0.88;;;3.90;93.70;;;;;;4960003;29;20236;-63
2023/11/27 08:56:00;;;;;;;0.80;0.80;;;3.90;94.00;;;;;;4961209;29;20181;-63
2023/11/27 08:58:26;;;;;;;0.90;0.90;;;4.00;94.00;;;;;;4961361;29;20198;-66
2023/11/27 09:00:52;;;;;;;0.87;0.87;;;4.00;93.90;;;;;;4961372;29;20417;-63
2023/11/27 09:03:18;;;;;;;16.63;1.90;;;4.10;93.90;;;;;;4960949;28;20181;-63
2023/11/27 09:05:47;;;;;;;1.25;1.15;;;4.20;93.90;;;;;;4960805;28;20265;-63
2023/11/27 09:08:13;;;;;;;2.55;1.95;;;4.40;94.00;;;;;;4960612;28;20649;-63
2023/11/27 09:10:44;;;;;;;28.60;2.70;;;4.50;94.00;;;;;;4959321;28;20205;-63
2023/11/27 09:13:12;;;;;;;3.10;1.58;;;4.60;93.70;;;;;;4960625;28;20784;-63
2023/11/27 09:15:38;;;;;;;0.75;0.75;;;4.80;93.60;;;;;;4960151;28;20183;-63
2023/11/27 09:18:03;;;;;;;1.20;1.10;;;4.90;93.40;;;;;;4960574;29;20608;-63
2023/11/27 09:20:29;;;;;;;1.50;1.13;;;5.00;93.60;;;;;;4960680;29;20201;-63
2023/11/27 09:22:56;;;;;;;1.80;1.70;;;5.20;93.60;;;;;;4960634;29;20226;-63
2023/11/27 09:25:22;;;;;;;1.20;1.20;;;5.30;93.00;;;;;;4960299;28;20250;-63
2023/11/27 09:27:47;;;;;;;1.83;1.73;;;5.40;93.30;;;;;;4960787;29;20210;-63
2023/11/27 09:30:13;;;;;;;0.80;0.80;;;5.60;93.20;;;;;;4960400;29;20432;-63
2023/11/27 09:32:39;;;;;;;0.97;0.97;;;5.70;92.70;;;;;;4961063;29;20264;-63
2023/11/27 09:35:10;;;;;;;1.27;0.93;;;5.80;92.80;;;;;;4960135;28;20812;-63
2023/11/27 09:37:37;;;;;;;3.80;1.00;;;5.90;92.30;;;;;;4961422;29;20568;-63
2023/11/27 09:40:05;;;;;;;1.10;1.00;;;6.00;92.60;;;;;;4960358;28;20215;-63
2023/11/27 09:42:35;;;;;;;0.95;0.93;;;6.10;92.00;;;;;;4960343;28;20219;-63
2023/11/27 09:45:07;;;;;;;1.23;1.23;;;6.30;92.10;;;;;;4959717;28;20212;-63
2023/11/27 09:47:37;;;;;;;0.98;0.98;;;6.40;92.50;;;;;;4960273;28;20207;-63
2023/11/27 09:50:09;;;;;;;2.45;1.90;;;6.70;92.10;;;;;;4959461;28;20209;-65
2023/11/27 09:53:15;;;;;;;6.53;3.20;;;7.00;92.00;;;;;;4957163;28;20201;-65
2023/11/27 09:55:41;;;;;;;1.98;1.88;;;7.40;91.10;;;;;;4934028;29;20202;-65
2023/11/27 09:58:10;;;;;;;2.23;2.07;;;7.70;91.20;;;;;;4935475;29;20212;-65
2023/11/27 10:00:36;;;;;;;1.55;1.45;;;8.10;90.20;;;;;;4939721;29;20241;-64
2023/11/27 10:03:03;;;;;;;1.85;1.75;;;8.30;90.00;;;;;;4957975;29;20189;-65
2023/11/27 10:05:29;;;;;;;5.15;2.10;;;8.30;88.70;;;;;;4957357;29;20207;-65
2023/11/27 10:07:56;;;;;;;8.73;2.38;;;8.20;88.60;;;;;;4956683;29;20177;-64
2023/11/27 10:10:28;;;;;;;1.83;1.73;;;8.00;87.90;;;;;;4957897;28;20166;-65
2023/11/27 10:12:58;;;;;;;2.80;0.98;;;7.90;90.00;;;;;;4958764;29;20268;-64
2023/11/27 10:15:27;;;;;;;1.63;1.48;;;8.10;90.30;;;;;;4958572;29;20532;-63
2023/11/27 10:17:55;;;;;;;1.02;1.02;;;8.30;89.60;;;;;;4959152;28;20178;-64
2023/11/27 10:20:22;;;;;;;3.42;2.70;;;8.60;87.80;;;;;;4956310;29;20233;-65
2023/11/27 10:22:47;;;;;;;1.75;1.42;;;8.90;85.60;;;;;;4954240;29;20224;-65
2023/11/27 10:25:17;;;;;;;1.90;1.57;;;9.00;84.50;;;;;;4955337;29;20197;-65
2023/11/27 10:27:46;;;;;;;6.82;3.22;;;9.10;84.00;;;;;;4955240;28;20636;-65
2023/11/27 10:30:24;;;;;;;5.30;2.30;;;8.80;86.00;;;;;;4955590;29;20284;-65
2023/11/27 10:32:51;;;;;;;4.65;2.42;;;8.40;86.00;;;;;;4955001;28;20193;-64
2023/11/27 10:35:18;;;;;;;2.45;2.15;;;8.10;86.60;;;;;;4955691;29;20224;-65
2023/11/27 10:37:44;;;;;;;1.70;0.73;;;8.10;88.70;;;;;;4954506;29;20184;-52
2023/11/27 10:40:14;;;;;;;1.67;1.25;;;8.40;92.80;;;;;;4953667;29;20566;-54
2023/11/27 10:42:49;;;;;;;4.18;1.55;;;9.10;94.40;;;;;;4956663;29;20571;-63
2023/11/27 10:45:19;;;;;;;4.32;0.85;;;9.50;87.60;;;;;;4956096;29;20699;-64
2023/11/27 10:47:50;;;;;;;1.05;0.98;;;9.40;80.60;;;;;;4958567;29;20185;-63
2023/11/27 10:50:17;;;;;;;0.73;0.60;;;8.90;79.10;;;;;;5005875;23;20236;-61
2023/11/27 10:52:48;;;;;;;0.57;0.57;;;8.30;78.90;;;;;;4974462;28;20200;-62
2023/11/27 10:55:19;;;;;;;2.30;1.15;;;8.20;81.10;;;;;;4992066;28;20184;-62
2023/11/27 10:57:47;;;;;;;0.70;0.70;;;8.30;80.80;;;;;;4992400;28;20187;-62
2023/11/27 11:00:29;;;;;;;0.68;0.68;;;8.20;79.80;;;;;;4991954;28;20192;-62
2023/11/27 11:03:03;;;;;;;0.45;0.45;;;8.10;82.20;;;;;;4992989;28;20611;-62
2023/11/27 11:05:35;;;;;;;0.73;0.73;;;7.90;80.90;;;;;;4995367;28;20218;-62
2023/11/27 11:08:03;;;;;;;0.40;0.40;;;7.80;83.70;;;;;;4996116;28;20183;-63
2023/11/27 11:10:31;;;;;;;1.85;0.65;;;7.60;82.40;;;;;;4978691;28;20200;-62
2023/11/27 11:13:00;;;;;;;0.55;0.55;;;7.40;84.50;;;;;;4974830;28;20213;-62
2023/11/27 11:15:42;;;;;;;0.50;0.50;;;7.40;84.20;;;;;;4984351;28;20661;-63
2023/11/27 11:18:15;;;;;;;0.68;0.68;;;7.50;85.10;;;;;;4996081;28;20200;-63
2023/11/27 11:21:05;;;;;;;0.50;0.50;;;7.40;83.00;;;;;;4978570;28;20258;-63
2023/11/27 11:23:43;;;;;;;0.80;0.50;;;7.10;85.80;;;;;;4995541;28;20180;-62
2023/11/27 11:26:38;;;;;;;0.50;0.50;;;6.90;86.60;;;;;;4995513;28;20209;-63
2023/11/27 11:29:14;;;;;;;0.88;0.70;;;6.70;86.30;;;;;;4995759;28;20260;-62
2023/11/27 11:32:08;;;;;;;0.68;0.68;;;6.50;87.20;;;;;;4995759;28;20173;-62
2023/11/27 11:34:38;;;;;;;2.67;0.82;;;6.40;86.60;;;;;;4995394;28;20649;-63
2023/11/27 11:37:07;;;;;;;1.05;0.95;;;6.20;87.60;;;;;;4995621;28;20182;-62
2023/11/27 11:39:36;;;;;;;1.73;1.63;;;6.20;87.80;;;;;;4995474;28;20742;-62
2023/11/27 11:42:04;;;;;;;0.40;0.40;;;6.30;88.10;;;;;;4994161;28;20182;-62
2023/11/27 11:44:34;;;;;;;0.40;0.40;;;6.00;88.70;;;;;;4994454;28;20250;-63
2023/11/27 11:47:06;;;;;;;4.00;1.10;;;5.90;90.30;;;;;;4995448;28;20176;-63
2023/11/27 11:49:32;;;;;;;0.80;0.80;;;5.90;90.80;;;;;;4995182;28;20213;-62
2023/11/27 11:52:09;;;;;;;0.50;0.50;;;5.90;90.90;;;;;;4995449;28;20694;-63
2023/11/27 11:54:38;;;;;;;0.80;0.60;;;6.00;91.20;;;;;;4995144;28;20178;-62
2023/11/27 11:57:31;;;;;;;0.50;0.50;;;6.00;91.40;;;;;;4995295;28;20179;-62
2023/11/27 12:00:03;;;;;;;6.13;1.13;;;6.10;91.50;;;;;;4994221;28;20206;-61
2023/11/27 12:02:32;;;;;;;0.40;0.40;;;6.10;91.00;;;;;;4994052;28;20187;-62
2023/11/27 12:04:57;;;;;;;0.50;0.50;;;6.00;90.70;;;;;;4994899;28;20296;-62
2023/11/27 12:07:24;;;;;;;0.40;0.40;;;5.80;90.80;;;;;;4995123;28;20172;-62
2023/11/27 12:09:51;;;;;;;0.63;0.63;;;5.80;91.30;;;;;;4994773;28;20233;-62
2023/11/27 12:12:22;;;;;;;0.60;0.60;;;5.80;91.20;;;;;;4994971;28;20237;-63
2023/11/27 12:14:47;;;;;;;1.48;1.38;;;5.80;91.50;;;;;;4994430;28;20186;-62
2023/11/27 12:17:15;;;;;;;0.47;0.47;;;6.00;91.80;;;;;;4993474;28;20680;-61
2023/11/27 12:19:48;;;;;;;0.50;0.50;;;6.10;91.60;;;;;;4993688;28;20256;-62
2023/11/27 12:22:13;;;;;;;1.30;1.20;;;6.10;91.40;;;;;;4994764;28;20222;-62
2023/11/27 12:24:46;;;;;;;0.77;0.77;;;6.20;91.20;;;;;;4994503;28;20597;-62
2023/11/27 12:27:13;;;;;;;0.40;0.40;;;6.20;91.10;;;;;;4973807;28;20179;-62
2023/11/27 12:29:38;;;;;;;0.50;0.50;;;6.30;91.00;;;;;;4985205;28;20219;-62
2023/11/27 12:32:06;;;;;;;1.20;1.20;;;6.30;90.90;;;;;;4994743;28;20167;-62
2023/11/27 12:34:35;;;;;;;0.50;0.50;;;6.30;90.90;;;;;;4994230;28;20411;-62
2023/11/27 12:37:06;;;;;;;4.53;1.00;;;6.20;91.30;;;;;;4994504;28;20227;-62
2023/11/27 12:39:35;;;;;;;0.50;0.50;;;6.30;91.70;;;;;;4994684;28;20197;-61
2023/11/27 12:42:03;;;;;;;0.40;0.40;;;6.20;91.60;;;;;;4977528;28;20186;-62
2023/11/27 12:44:30;;;;;;;1.02;1.02;;;6.20;91.30;;;;;;4977112;28;20691;-62
2023/11/27 12:46:59;;;;;;;0.55;0.55;;;6.10;91.40;;;;;;4994428;28;20628;-62
2023/11/27 12:49:27;;;;;;;0.60;0.60;;;6.20;91.40;;;;;;4993979;28;20220;-62
2023/11/27 12:51:57;;;;;;;0.75;0.75;;;6.10;91.70;;;;;;4994275;28;20184;-62
2023/11/27 12:54:27;;;;;;;0.50;0.50;;;6.00;91.30;;;;;;4976929;28;20182;-62
2023/11/27 12:57:02;;;;;;;0.70;0.70;;;6.00;91.70;;;;;;4994173;28;20270;-63
2023/11/27 12:59:28;;;;;;;0.70;0.70;;;6.00;91.60;;;;;;4994202;28;20247;-61